Weather observations for the past three days for
San Diego, North Island, Naval Air Station
Imperial (Metric)
Date Time (pdt) Wind (mph) Vis. (mi.) Weather Sky Cond. Temperature (ºF) Relative Humidity Wind Chill (°F) Heat Index (°F) Pressure Precipitation (in)
Air Dwpt 6 hour altimeter (in) sea level (mb) 1 hr 3 hr 6 hr
Max. Min.
10 06:52 NW 6 7.00 Overcast OVC012 61 55 81% 29.91 1012.6
10 05:52 S 3 0.00 Overcast OVC011 60.1 55.9 86% 29.89 1012.2
10 04:52 Calm 0.00 Overcast OVC011 60.1 55.9 62.1 60.1 86% 29.89 1012.2
10 03:52 Calm 0.00 Overcast OVC011 60.1 55.9 86% 29.9 1012.3
10 02:52 S 3 0.00 Overcast OVC010 60.1 55.9 86% 29.9 1012.4
10 01:52 S 5 0.00 Overcast OVC012 61 55.9 84% 29.91 1012.6
10 00:52 S 5 0.00 Overcast OVC012 61 55.9 84% 29.92 1013.0
09 23:52 S 6 0.00 Overcast OVC013 61 55.9 84% 29.92 1013.2
09 22:52 Calm 0.00 Overcast OVC013 61 55 64.9 61 81% 29.93 1013.3
09 21:52 SW 3 10.00 Mostly Cloudy BKN014 62.1 55.9 80% 29.93 1013.3
09 20:52 W 3 10.00 Mostly Cloudy BKN013 61 55 81% 29.92 1013.0
09 19:52 SW 5 8.00 Partly Cloudy FEW013 SCT017 61 55 81% 29.9 1012.3
09 18:52 SW 7 7.00 Mostly Cloudy SCT013 BKN017 63 55 76% 29.89 1012.0
09 17:52 SW 7 7.00 Mostly Cloudy BKN013 64 55.9 75% 29.89 1012.1
09 16:52 S 8 10.00 A Few Clouds FEW015 64.9 55.9 68 64.9 73% 29.88 1011.8
09 15:52 S 8 10.00 A Few Clouds FEW015 66 55.9 70% 29.89 1012.1
09 14:52 Vrbl 5 10.00 Partly Cloudy SCT016 66.9 55.9 68% 29.91 1012.7
09 13:52 W 8 10.00 A Few Clouds FEW015 68 55.9 65% 29.92 1013.1
09 12:52 SW 12 10.00 A Few Clouds FEW015 66.9 55.9 68% 29.92 1013.1
09 11:52 W 8 10.00 A Few Clouds FEW015 66 55 68% 29.93 1013.4
09 10:52 W 8 10.00 A Few Clouds FEW015 66 55.9 66 60.1 70% 29.94 1013.6
09 09:52 Vrbl 5 10.00 Mostly Cloudy BKN014 64 55.9 75% 29.93 1013.6
09 08:52 W 6 10.00 Overcast OVC014 63 55.9 78% 29.94 1013.7
09 07:52 Calm 10.00 Overcast OVC011 62.1 55.9 80% 29.94 1013.7
09 06:52 W 6 10.00 Overcast OVC010 61 55.9 84% 29.93 1013.6
09 04:52 W 5 0.00 Overcast OVC010 61 57 63 61 87% 29.92 1013.1
09 03:52 W 6 0.00 Overcast OVC010 62.1 57 84% 29.93 1013.3
09 02:52 W 3 0.00 Overcast OVC010 62.1 57 84% 29.93 1013.3
09 01:52 W 5 0.00 Overcast OVC010 62.1 57 84% 29.94 1013.8
09 00:52 W 3 0.00 Overcast OVC010 62.1 57.9 86% 29.95 1014.1
08 23:52 W 7 0.00 Overcast OVC010 63 57.9 84% 29.96 1014.5
08 21:52 W 7 6.00 Overcast with Haze OVC010 63 57.9 84% 29.97 1014.7
08 20:52 NW 8 6.00 Mostly Cloudy with Haze BKN011 64 57.9 81% 29.96 1014.4
08 19:52 NW 9 5.00 Mostly Cloudy with Haze BKN011 64 57.9 81% 29.94 1014.0
08 18:52 NW 9 6.00 Partly Cloudy with Haze SCT012 64.9 57.9 78% 29.93 1013.5
08 17:52 W 8 10.00 Partly Cloudy SCT014 64.9 57.9 78% 29.93 1013.5
08 16:52 NW 9 10.00 Partly Cloudy SCT016 68 57.9 69.1 64.9 70% 29.94 1013.6
08 15:52 W 9 10.00 A Few Clouds FEW016 68 57 68% 29.95 1014.0
08 14:52 W 13 10.00 A Few Clouds FEW016 68 57 68% 29.96 1014.6
08 13:52 W 10 10.00 A Few Clouds FEW016 68 57 68% 29.97 1014.7
08 12:52 W 9 10.00 A Few Clouds FEW016 68 55.9 65% 29.97 1015.0
08 11:52 W 7 10.00 A Few Clouds FEW016 66.9 55.9 68% 29.99 1015.5
08 10:52 W 7 10.00 Partly Cloudy SCT015 64.9 55.9 64.9 61 73% 30 1015.9
08 09:52 W 5 10.00 Overcast OVC015 64 55.9 75% 30.01 1016.1
08 08:52 W 3 10.00 Overcast OVC015 63 55.9 78% 30.01 1016.3
08 07:52 W 5 10.00 Overcast OVC014 62.1 55.9 80% 30.01 1016.3
08 06:52 SW 5 10.00 Overcast OVC014 61 55.9 84% 30.01 1016.0
08 05:52 Calm 10.00 Overcast OVC010 61 55.9 84% 29.99 1015.6
08 04:52 S 3 10.00 Overcast OVC010 61 55.9 62.1 61 84% 29.99 1015.5
08 03:52 S 7 10.00 Overcast OVC012 61 55.9 84% 29.99 1015.4
08 02:52 Calm 10.00 Overcast OVC012 61 55.9 84% 30 1015.7
08 01:52 SW 3 10.00 Overcast OVC011 61 55.9 84% 30 1015.7
08 00:52 Calm 10.00 Overcast OVC010 61 57 87% 30.01 1016.2
07 23:52 S 3 10.00 Overcast OVC011 62.1 57 84% 30.02 1016.4
07 22:52 SW 3 10.00 Overcast OVC012 62.1 55.9 66 61 80% 30.02 1016.6
07 21:52 Calm 10.00 Overcast OVC012 62.1 55.9 80% 30.02 1016.5
07 20:52 S 6 10.00 Overcast OVC014 62.1 57 84% 30 1015.7
07 19:52 W 5 10.00 Partly Cloudy SCT016 62.1 55.9 80% 29.98 1015.0
07 18:52 W 8 10.00 A Few Clouds FEW016 63 57 81% 29.96 1014.5
07 17:52 W 5 10.00 A Few Clouds FEW016 64.9 55.9 73% 29.96 1014.3
07 16:52 W 9 10.00 Partly Cloudy SCT016 64.9 55.9 68 64.9 73% 29.96 1014.5
07 15:52 W 7 10.00 Partly Cloudy SCT016 66 55.9 70% 29.96 1014.6
07 14:52 W 9 10.00 Partly Cloudy SCT020 66.9 55.9 68% 29.98 1015.1
07 13:52 W 12 G 18 10.00 Partly Cloudy SCT020 66.9 55.9 68% 29.99 1015.5
07 12:52 W 12 10.00 Partly Cloudy SCT020 66.9 55.9 68% 30 1015.8
07 11:52 W 8 10.00 Partly Cloudy SCT020 68 55.9 65% 30.01 1016.1
07 10:52 W 8 10.00 Mostly Cloudy BKN020 64.9 55.9 66 57.9 73% 30.02 1016.4
07 09:52 W 6 10.00 Mostly Cloudy BKN014 64 55 73% 30.02 1016.6
07 08:52 NW 3 10.00 Mostly Cloudy BKN014 63 55 76% 30.03 1016.8
07 07:52 SW 5 10.00 Mostly Cloudy BKN014 62.1 55.9 80% 30.02 1016.6
Date Time (pdt) Wind (mph) Vis. (mi.) Weather Sky Cond. Air Dwpt Max. Min. Relative Humidity Wind Chill (°F) Heat Index (°F) altimeter (in) sea level (mb) 1 hr 3 hr 6 hr
6 hour
Temperature (ºF) Pressure Precipitation (in)